"FBL" i en METAR?

(1/3) > >>

Dson:
Tittade på skoj nu på Arlandas METAR. Den lyder:
ESSA 190650Z 25010KT 9999 FBL RA FEW004 BKN006 02/02 Q0962 8819//95 NOSIG

Men vad betyder egentligen FBL? Kan nästan misstänka att det har med regnet att göra, men...?

Martin Loxbo:
Det betyder "feeble". Egentligen ska det inte förekomma i METAR, det borde stå -RA istället. FBL är vad jag förstår en förkortning som förekommer bl.a. i MET REPORT.

matte629:
och -RA betyder lätt regn. (duktig) 

Snubbelibubben:
Nu när frågan ändå är uppe om Metar, så vad betyder: "8819//95 NOSIG"? I bland slutar det med "Supprised", eller nått liknande med.
Man har ju stött på lite sånt med Active Sky nu under vindern

/ Johan

frazer:
Quote

Nu när frågan ändå är uppe om Metar, så vad betyder: "8819//95 NOSIG"? I bland slutar det med "Supprised", eller nått liknande med.
Man har ju stött på lite sånt med Active Sky nu under vindern


I det första exemplet så har du citerat den delen som innehåller bromsvärden samt det som är unikt för Arlandas observation, nämligen en trend. I det här fallet är inte trenden så spännande dock: NOSIG = No Significant Changes.

Navigation

Up one level

Next page